sensor_id;sensor_type;location;lat;lon;timestamp;temperature;humidity
51557;DHT22;38766;53.194;5.532;2023-05-10T00:00:21;12.70;99.90
51557;DHT22;38766;53.194;5.532;2023-05-10T00:02:48;12.60;99.90
51557;DHT22;38766;53.194;5.532;2023-05-10T00:05:13;12.70;99.90
51557;DHT22;38766;53.194;5.532;2023-05-10T00:07:39;12.60;99.90
51557;DHT22;38766;53.194;5.532;2023-05-10T00:10:06;12.60;99.90
51557;DHT22;38766;53.194;5.532;2023-05-10T00:12:31;12.60;99.90
51557;DHT22;38766;53.194;5.532;2023-05-10T00:14:57;12.60;99.90
51557;DHT22;38766;53.194;5.532;2023-05-10T00:17:23;12.60;99.90
51557;DHT22;38766;53.194;5.532;2023-05-10T00:19:48;12.60;99.90
51557;DHT22;38766;53.194;5.532;2023-05-10T00:22:14;12.60;99.90
51557;DHT22;38766;53.194;5.532;2023-05-10T00:24:39;12.60;99.90
51557;DHT22;38766;53.194;5.532;2023-05-10T00:27:05;12.60;99.90
51557;DHT22;38766;53.194;5.532;2023-05-10T00:29:31;12.70;99.90
51557;DHT22;38766;53.194;5.532;2023-05-10T00:31:57;12.60;99.90
51557;DHT22;38766;53.194;5.532;2023-05-10T00:34:22;12.60;99.90
51557;DHT22;38766;53.194;5.532;2023-05-10T00:36:48;12.60;99.90
51557;DHT22;38766;53.194;5.532;2023-05-10T00:39:14;12.60;99.90
51557;DHT22;38766;53.194;5.532;2023-05-10T00:41:39;12.60;99.90
51557;DHT22;38766;53.194;5.532;2023-05-10T00:44:05;12.60;99.90
51557;DHT22;38766;53.194;5.532;2023-05-10T00:46:31;12.50;99.90
51557;DHT22;38766;53.194;5.532;2023-05-10T00:48:57;12.50;99.90
51557;DHT22;38766;53.194;5.532;2023-05-10T00:51:23;12.60;99.90
51557;DHT22;38766;53.194;5.532;2023-05-10T00:53:49;12.50;99.90
51557;DHT22;38766;53.194;5.532;2023-05-10T00:56:16;12.50;99.90
51557;DHT22;38766;53.194;5.532;2023-05-10T00:58:42;12.60;99.90
51557;DHT22;38766;53.194;5.532;2023-05-10T01:01:08;12.50;99.90
51557;DHT22;38766;53.194;5.532;2023-05-10T01:03:35;12.50;99.90
51557;DHT22;38766;53.194;5.532;2023-05-10T01:06:01;12.50;99.90
51557;DHT22;38766;53.194;5.532;2023-05-10T01:08:27;12.50;99.90
51557;DHT22;38766;53.194;5.532;2023-05-10T01:10:54;12.50;99.90
51557;DHT22;38766;53.194;5.532;2023-05-10T01:13:35;12.50;99.90
51557;DHT22;38766;53.194;5.532;2023-05-10T01:16:01;12.50;99.90
51557;DHT22;38766;53.194;5.532;2023-05-10T01:18:31;12.50;99.90
51557;DHT22;38766;53.194;5.532;2023-05-10T01:21:14;12.50;99.90
51557;DHT22;38766;53.194;5.532;2023-05-10T01:32:08;12.50;99.90
51557;DHT22;38766;53.194;5.532;2023-05-10T01:35:00;12.50;99.90
51557;DHT22;38766;53.194;5.532;2023-05-10T01:37:41;12.50;99.90
51557;DHT22;38766;53.194;5.532;2023-05-10T01:40:22;12.40;99.90
51557;DHT22;38766;53.194;5.532;2023-05-10T01:42:54;12.50;99.90
51557;DHT22;38766;53.194;5.532;2023-05-10T01:45:45;12.40;99.90
51557;DHT22;38766;53.194;5.532;2023-05-10T01:48:14;12.40;99.90
51557;DHT22;38766;53.194;5.532;2023-05-10T01:50:43;12.40;99.90
51557;DHT22;38766;53.194;5.532;2023-05-10T01:53:12;12.40;99.90
51557;DHT22;38766;53.194;5.532;2023-05-10T01:55:43;12.40;99.90
51557;DHT22;38766;53.194;5.532;2023-05-10T01:58:14;12.40;99.90
51557;DHT22;38766;53.194;5.532;2023-05-10T02:00:43;12.40;99.90
51557;DHT22;38766;53.194;5.532;2023-05-10T02:03:10;12.40;99.90
51557;DHT22;38766;53.194;5.532;2023-05-10T02:05:37;12.40;99.90
51557;DHT22;38766;53.194;5.532;2023-05-10T02:08:06;12.40;99.90
51557;DHT22;38766;53.194;5.532;2023-05-10T02:10:34;12.40;99.90
51557;DHT22;38766;53.194;5.532;2023-05-10T02:13:00;12.40;99.90
51557;DHT22;38766;53.194;5.532;2023-05-10T02:15:27;12.40;99.90
51557;DHT22;38766;53.194;5.532;2023-05-10T02:17:55;12.50;99.90
51557;DHT22;38766;53.194;5.532;2023-05-10T02:20:22;12.50;99.90
51557;DHT22;38766;53.194;5.532;2023-05-10T02:22:50;12.50;99.90
51557;DHT22;38766;53.194;5.532;2023-05-10T02:25:18;12.40;99.90
51557;DHT22;38766;53.194;5.532;2023-05-10T02:27:44;12.40;99.90
51557;DHT22;38766;53.194;5.532;2023-05-10T02:30:12;12.50;99.90
51557;DHT22;38766;53.194;5.532;2023-05-10T02:32:38;12.50;99.90
51557;DHT22;38766;53.194;5.532;2023-05-10T02:35:05;12.40;99.90
51557;DHT22;38766;53.194;5.532;2023-05-10T02:37:31;12.50;99.90
51557;DHT22;38766;53.194;5.532;2023-05-10T02:39:58;12.50;99.90
51557;DHT22;38766;53.194;5.532;2023-05-10T02:42:29;12.50;99.90
51557;DHT22;38766;53.194;5.532;2023-05-10T02:45:07;12.50;99.90
51557;DHT22;38766;53.194;5.532;2023-05-10T02:47:36;12.50;99.90
51557;DHT22;38766;53.194;5.532;2023-05-10T02:50:02;12.50;99.90
51557;DHT22;38766;53.194;5.532;2023-05-10T02:52:30;12.50;99.90
51557;DHT22;38766;53.194;5.532;2023-05-10T02:55:02;12.50;99.90
51557;DHT22;38766;53.194;5.532;2023-05-10T02:57:33;12.50;99.90
51557;DHT22;38766;53.194;5.532;2023-05-10T02:59:59;12.60;99.90
51557;DHT22;38766;53.194;5.532;2023-05-10T03:02:26;12.60;99.90
51557;DHT22;38766;53.194;5.532;2023-05-10T03:04:52;12.60;99.90
51557;DHT22;38766;53.194;5.532;2023-05-10T03:07:18;12.60;99.90
51557;DHT22;38766;53.194;5.532;2023-05-10T03:09:47;12.50;99.90
51557;DHT22;38766;53.194;5.532;2023-05-10T03:15:18;12.50;99.90
51557;DHT22;38766;53.194;5.532;2023-05-10T03:17:55;12.50;99.90
51557;DHT22;38766;53.194;5.532;2023-05-10T03:20:29;12.60;99.90
51557;DHT22;38766;53.194;5.532;2023-05-10T03:23:11;12.60;99.90
51557;DHT22;38766;53.194;5.532;2023-05-10T03:25:37;12.50;99.90
51557;DHT22;38766;53.194;5.532;2023-05-10T03:28:04;12.50;99.90
51557;DHT22;38766;53.194;5.532;2023-05-10T03:30:30;12.50;99.90
51557;DHT22;38766;53.194;5.532;2023-05-10T03:32:57;12.50;99.90
51557;DHT22;38766;53.194;5.532;2023-05-10T03:35:23;12.50;99.90
51557;DHT22;38766;53.194;5.532;2023-05-10T03:37:49;12.50;99.90
51557;DHT22;38766;53.194;5.532;2023-05-10T03:40:15;12.50;99.90
51557;DHT22;38766;53.194;5.532;2023-05-10T03:42:41;12.60;99.90
51557;DHT22;38766;53.194;5.532;2023-05-10T03:45:07;12.50;99.90
51557;DHT22;38766;53.194;5.532;2023-05-10T03:47:33;12.50;99.90
51557;DHT22;38766;53.194;5.532;2023-05-10T03:49:59;12.50;99.90
51557;DHT22;38766;53.194;5.532;2023-05-10T03:52:24;12.50;99.90
51557;DHT22;38766;53.194;5.532;2023-05-10T03:54:50;12.50;99.90
51557;DHT22;38766;53.194;5.532;2023-05-10T03:57:16;12.50;99.90
51557;DHT22;38766;53.194;5.532;2023-05-10T03:59:41;12.50;99.90
51557;DHT22;38766;53.194;5.532;2023-05-10T04:02:07;12.50;99.90
51557;DHT22;38766;53.194;5.532;2023-05-10T04:04:33;12.60;99.90
51557;DHT22;38766;53.194;5.532;2023-05-10T04:06:58;12.50;99.90
51557;DHT22;38766;53.194;5.532;2023-05-10T04:09:24;12.60;99.90
51557;DHT22;38766;53.194;5.532;2023-05-10T04:11:49;12.60;99.90
51557;DHT22;38766;53.194;5.532;2023-05-10T04:14:15;12.60;99.90
51557;DHT22;38766;53.194;5.532;2023-05-10T04:16:41;12.60;99.90
51557;DHT22;38766;53.194;5.532;2023-05-10T04:19:07;12.60;99.90
51557;DHT22;38766;53.194;5.532;2023-05-10T04:21:33;12.50;99.90
51557;DHT22;38766;53.194;5.532;2023-05-10T04:23:58;12.60;99.90
51557;DHT22;38766;53.194;5.532;2023-05-10T04:26:24;12.60;99.90
51557;DHT22;38766;53.194;5.532;2023-05-10T04:28:50;12.60;99.90
51557;DHT22;38766;53.194;5.532;2023-05-10T04:31:16;12.60;99.90
51557;DHT22;38766;53.194;5.532;2023-05-10T04:33:42;12.60;99.90
51557;DHT22;38766;53.194;5.532;2023-05-10T04:36:08;12.60;99.90
51557;DHT22;38766;53.194;5.532;2023-05-10T04:38:34;12.60;99.90
51557;DHT22;38766;53.194;5.532;2023-05-10T04:41:10;12.60;99.90
51557;DHT22;38766;53.194;5.532;2023-05-10T04:43:36;12.60;99.90
51557;DHT22;38766;53.194;5.532;2023-05-10T04:46:02;12.60;99.90
51557;DHT22;38766;53.194;5.532;2023-05-10T04:48:28;12.60;99.90
51557;DHT22;38766;53.194;5.532;2023-05-10T04:50:54;12.50;99.90
51557;DHT22;38766;53.194;5.532;2023-05-10T04:53:20;12.50;99.90
51557;DHT22;38766;53.194;5.532;2023-05-10T04:55:45;12.50;99.90
51557;DHT22;38766;53.194;5.532;2023-05-10T04:58:12;12.50;99.90
51557;DHT22;38766;53.194;5.532;2023-05-10T05:00:37;12.50;99.90
51557;DHT22;38766;53.194;5.532;2023-05-10T05:03:03;12.50;99.90
51557;DHT22;38766;53.194;5.532;2023-05-10T05:05:28;12.50;99.90
51557;DHT22;38766;53.194;5.532;2023-05-10T05:07:54;12.50;99.90
51557;DHT22;38766;53.194;5.532;2023-05-10T05:10:20;12.50;99.90
51557;DHT22;38766;53.194;5.532;2023-05-10T05:12:51;12.50;99.90
51557;DHT22;38766;53.194;5.532;2023-05-10T05:15:17;12.50;99.90
51557;DHT22;38766;53.194;5.532;2023-05-10T05:17:43;12.50;99.90
51557;DHT22;38766;53.194;5.532;2023-05-10T05:20:09;12.50;99.90
51557;DHT22;38766;53.194;5.532;2023-05-10T05:22:38;12.50;99.90
51557;DHT22;38766;53.194;5.532;2023-05-10T05:25:04;12.50;99.90
51557;DHT22;38766;53.194;5.532;2023-05-10T05:27:31;12.50;99.90
51557;DHT22;38766;53.194;5.532;2023-05-10T05:29:57;12.50;99.90
51557;DHT22;38766;53.194;5.532;2023-05-10T05:32:24;12.50;99.90
51557;DHT22;38766;53.194;5.532;2023-05-10T05:34:50;12.60;99.90
51557;DHT22;38766;53.194;5.532;2023-05-10T05:37:18;12.60;99.90
51557;DHT22;38766;53.194;5.532;2023-05-10T05:39:44;12.50;99.90
51557;DHT22;38766;53.194;5.532;2023-05-10T05:42:11;12.50;99.90
51557;DHT22;38766;53.194;5.532;2023-05-10T05:44:37;12.50;99.90
51557;DHT22;38766;53.194;5.532;2023-05-10T05:47:03;12.50;99.90
51557;DHT22;38766;53.194;5.532;2023-05-10T05:49:29;12.50;99.90
51557;DHT22;38766;53.194;5.532;2023-05-10T05:52:01;12.50;99.90
51557;DHT22;38766;53.194;5.532;2023-05-10T05:54:27;12.50;99.90
51557;DHT22;38766;53.194;5.532;2023-05-10T05:56:57;12.50;99.90
51557;DHT22;38766;53.194;5.532;2023-05-10T05:59:23;12.50;99.90
51557;DHT22;38766;53.194;5.532;2023-05-10T06:01:49;12.50;99.90
51557;DHT22;38766;53.194;5.532;2023-05-10T06:04:15;12.50;99.90
51557;DHT22;38766;53.194;5.532;2023-05-10T06:06:41;12.50;99.90
51557;DHT22;38766;53.194;5.532;2023-05-10T06:09:08;12.50;99.90
51557;DHT22;38766;53.194;5.532;2023-05-10T06:11:34;12.50;99.90
51557;DHT22;38766;53.194;5.532;2023-05-10T06:14:00;12.50;99.90
51557;DHT22;38766;53.194;5.532;2023-05-10T06:16:26;12.50;99.90
51557;DHT22;38766;53.194;5.532;2023-05-10T06:18:51;12.50;99.90
51557;DHT22;38766;53.194;5.532;2023-05-10T06:21:17;12.50;99.90
51557;DHT22;38766;53.194;5.532;2023-05-10T06:23:43;12.50;99.90
51557;DHT22;38766;53.194;5.532;2023-05-10T06:26:09;12.60;99.90
51557;DHT22;38766;53.194;5.532;2023-05-10T06:28:35;12.50;99.90
51557;DHT22;38766;53.194;5.532;2023-05-10T06:31:03;12.50;99.90
51557;DHT22;38766;53.194;5.532;2023-05-10T06:33:29;12.40;99.90
51557;DHT22;38766;53.194;5.532;2023-05-10T06:35:54;12.50;99.90
51557;DHT22;38766;53.194;5.532;2023-05-10T06:38:20;12.50;99.90
51557;DHT22;38766;53.194;5.532;2023-05-10T06:40:46;12.50;99.90
51557;DHT22;38766;53.194;5.532;2023-05-10T06:43:11;12.50;99.90
51557;DHT22;38766;53.194;5.532;2023-05-10T06:45:37;12.50;99.90
51557;DHT22;38766;53.194;5.532;2023-05-10T06:48:03;12.50;99.90
51557;DHT22;38766;53.194;5.532;2023-05-10T06:50:28;12.60;99.90
51557;DHT22;38766;53.194;5.532;2023-05-10T06:52:54;12.60;99.90
51557;DHT22;38766;53.194;5.532;2023-05-10T06:55:21;12.60;99.90
51557;DHT22;38766;53.194;5.532;2023-05-10T06:57:46;12.60;99.90
51557;DHT22;38766;53.194;5.532;2023-05-10T07:00:13;12.60;99.90
51557;DHT22;38766;53.194;5.532;2023-05-10T07:02:39;12.60;99.90
51557;DHT22;38766;53.194;5.532;2023-05-10T07:05:05;12.60;99.90
51557;DHT22;38766;53.194;5.532;2023-05-10T07:07:32;12.60;99.90
51557;DHT22;38766;53.194;5.532;2023-05-10T07:09:58;12.70;99.90
51557;DHT22;38766;53.194;5.532;2023-05-10T07:12:24;12.70;99.90
51557;DHT22;38766;53.194;5.532;2023-05-10T07:14:50;12.70;99.90
51557;DHT22;38766;53.194;5.532;2023-05-10T07:17:15;12.80;99.90
51557;DHT22;38766;53.194;5.532;2023-05-10T07:19:41;12.80;99.90
51557;DHT22;38766;53.194;5.532;2023-05-10T07:22:06;12.80;99.90
51557;DHT22;38766;53.194;5.532;2023-05-10T07:24:33;12.80;99.90
51557;DHT22;38766;53.194;5.532;2023-05-10T07:26:59;12.80;99.90
51557;DHT22;38766;53.194;5.532;2023-05-10T07:29:25;12.90;99.90
51557;DHT22;38766;53.194;5.532;2023-05-10T07:31:50;12.90;99.90
51557;DHT22;38766;53.194;5.532;2023-05-10T07:34:16;12.90;99.90
51557;DHT22;38766;53.194;5.532;2023-05-10T07:36:42;13.00;99.90
51557;DHT22;38766;53.194;5.532;2023-05-10T07:39:08;13.10;99.90
51557;DHT22;38766;53.194;5.532;2023-05-10T07:41:33;13.00;99.90
51557;DHT22;38766;53.194;5.532;2023-05-10T07:43:59;13.10;99.90
51557;DHT22;38766;53.194;5.532;2023-05-10T07:46:25;13.00;99.90
51557;DHT22;38766;53.194;5.532;2023-05-10T07:48:51;13.10;99.90
51557;DHT22;38766;53.194;5.532;2023-05-10T07:51:16;13.10;99.90
51557;DHT22;38766;53.194;5.532;2023-05-10T07:53:42;13.10;99.90
51557;DHT22;38766;53.194;5.532;2023-05-10T07:56:31;13.10;99.90
51557;DHT22;38766;53.194;5.532;2023-05-10T07:58:59;13.10;99.90
51557;DHT22;38766;53.194;5.532;2023-05-10T08:01:25;13.10;99.90
51557;DHT22;38766;53.194;5.532;2023-05-10T08:03:51;13.10;99.90
51557;DHT22;38766;53.194;5.532;2023-05-10T08:06:19;13.20;99.90
51557;DHT22;38766;53.194;5.532;2023-05-10T08:08:46;13.10;99.90
51557;DHT22;38766;53.194;5.532;2023-05-10T08:11:16;13.10;99.90
51557;DHT22;38766;53.194;5.532;2023-05-10T08:13:41;13.20;99.90
51557;DHT22;38766;53.194;5.532;2023-05-10T08:16:07;13.20;99.90
51557;DHT22;38766;53.194;5.532;2023-05-10T08:18:33;13.20;99.90
51557;DHT22;38766;53.194;5.532;2023-05-10T08:20:58;13.20;99.90
51557;DHT22;38766;53.194;5.532;2023-05-10T08:23:24;13.20;99.90
51557;DHT22;38766;53.194;5.532;2023-05-10T08:25:49;13.30;99.90
51557;DHT22;38766;53.194;5.532;2023-05-10T08:28:15;13.30;99.90
51557;DHT22;38766;53.194;5.532;2023-05-10T08:30:41;13.40;99.90
51557;DHT22;38766;53.194;5.532;2023-05-10T08:33:06;13.40;99.90
51557;DHT22;38766;53.194;5.532;2023-05-10T08:35:32;13.50;99.90
51557;DHT22;38766;53.194;5.532;2023-05-10T08:37:58;13.40;99.90
51557;DHT22;38766;53.194;5.532;2023-05-10T08:40:24;13.40;99.90
51557;DHT22;38766;53.194;5.532;2023-05-10T08:42:58;13.40;99.90
51557;DHT22;38766;53.194;5.532;2023-05-10T08:45:24;13.40;99.90
51557;DHT22;38766;53.194;5.532;2023-05-10T08:47:52;13.50;99.90
51557;DHT22;38766;53.194;5.532;2023-05-10T08:50:20;13.40;99.90
51557;DHT22;38766;53.194;5.532;2023-05-10T08:52:48;13.50;99.90
51557;DHT22;38766;53.194;5.532;2023-05-10T08:55:16;13.50;99.90
51557;DHT22;38766;53.194;5.532;2023-05-10T08:57:42;13.50;99.90
51557;DHT22;38766;53.194;5.532;2023-05-10T09:00:08;13.50;99.90
51557;DHT22;38766;53.194;5.532;2023-05-10T09:02:35;13.40;99.90
51557;DHT22;38766;53.194;5.532;2023-05-10T09:05:02;13.50;99.90
51557;DHT22;38766;53.194;5.532;2023-05-10T09:07:30;13.50;99.90
51557;DHT22;38766;53.194;5.532;2023-05-10T09:09:56;13.50;99.90
51557;DHT22;38766;53.194;5.532;2023-05-10T09:12:22;13.50;99.90
51557;DHT22;38766;53.194;5.532;2023-05-10T09:14:50;13.50;99.90
51557;DHT22;38766;53.194;5.532;2023-05-10T09:17:17;13.50;99.90
51557;DHT22;38766;53.194;5.532;2023-05-10T09:19:42;13.50;99.90
51557;DHT22;38766;53.194;5.532;2023-05-10T09:22:10;13.50;99.90
51557;DHT22;38766;53.194;5.532;2023-05-10T09:24:35;13.50;99.90
51557;DHT22;38766;53.194;5.532;2023-05-10T09:27:02;13.50;99.90
51557;DHT22;38766;53.194;5.532;2023-05-10T09:29:42;13.50;99.90
51557;DHT22;38766;53.194;5.532;2023-05-10T09:32:08;13.50;99.90
51557;DHT22;38766;53.194;5.532;2023-05-10T09:34:33;13.60;99.90
51557;DHT22;38766;53.194;5.532;2023-05-10T09:37:02;13.60;99.90
51557;DHT22;38766;53.194;5.532;2023-05-10T09:39:37;13.60;99.90
51557;DHT22;38766;53.194;5.532;2023-05-10T09:42:09;13.60;99.90
51557;DHT22;38766;53.194;5.532;2023-05-10T09:44:36;13.70;99.90
51557;DHT22;38766;53.194;5.532;2023-05-10T09:47:03;13.70;99.90
51557;DHT22;38766;53.194;5.532;2023-05-10T09:49:29;13.70;99.90
51557;DHT22;38766;53.194;5.532;2023-05-10T09:52:06;13.70;99.90
51557;DHT22;38766;53.194;5.532;2023-05-10T09:54:33;13.80;99.90
51557;DHT22;38766;53.194;5.532;2023-05-10T09:56:59;13.80;99.90
51557;DHT22;38766;53.194;5.532;2023-05-10T09:59:26;13.80;99.90
51557;DHT22;38766;53.194;5.532;2023-05-10T10:01:57;13.80;99.90
51557;DHT22;38766;53.194;5.532;2023-05-10T10:04:23;13.90;99.90
51557;DHT22;38766;53.194;5.532;2023-05-10T10:07:03;13.90;99.90
51557;DHT22;38766;53.194;5.532;2023-05-10T10:09:29;13.90;99.90
51557;DHT22;38766;53.194;5.532;2023-05-10T10:11:55;14.00;99.90
51557;DHT22;38766;53.194;5.532;2023-05-10T10:14:22;14.00;99.90
51557;DHT22;38766;53.194;5.532;2023-05-10T10:16:50;14.10;99.90
51557;DHT22;38766;53.194;5.532;2023-05-10T10:19:18;14.20;99.90
51557;DHT22;38766;53.194;5.532;2023-05-10T10:21:44;14.20;99.90
51557;DHT22;38766;53.194;5.532;2023-05-10T10:24:09;14.30;99.90
51557;DHT22;38766;53.194;5.532;2023-05-10T10:26:36;14.30;99.90
51557;DHT22;38766;53.194;5.532;2023-05-10T10:29:34;14.30;99.90
51557;DHT22;38766;53.194;5.532;2023-05-10T10:32:19;14.30;99.90
51557;DHT22;38766;53.194;5.532;2023-05-10T10:34:47;14.30;99.90
51557;DHT22;38766;53.194;5.532;2023-05-10T10:37:13;14.30;99.90
51557;DHT22;38766;53.194;5.532;2023-05-10T10:39:38;14.40;99.90
51557;DHT22;38766;53.194;5.532;2023-05-10T10:42:04;14.40;99.90
51557;DHT22;38766;53.194;5.532;2023-05-10T10:49:52;14.50;99.90
51557;DHT22;38766;53.194;5.532;2023-05-10T10:52:24;14.50;99.90
51557;DHT22;38766;53.194;5.532;2023-05-10T10:54:59;14.60;99.90
51557;DHT22;38766;53.194;5.532;2023-05-10T10:57:25;14.60;99.90
51557;DHT22;38766;53.194;5.532;2023-05-10T11:00:31;14.60;99.90
51557;DHT22;38766;53.194;5.532;2023-05-10T11:03:04;14.60;99.90
51557;DHT22;38766;53.194;5.532;2023-05-10T11:05:47;14.70;99.90
51557;DHT22;38766;53.194;5.532;2023-05-10T11:08:30;14.70;99.90
51557;DHT22;38766;53.194;5.532;2023-05-10T11:13:40;14.70;99.90
51557;DHT22;38766;53.194;5.532;2023-05-10T11:16:18;14.70;99.90
51557;DHT22;38766;53.194;5.532;2023-05-10T11:21:28;14.80;99.90
51557;DHT22;38766;53.194;5.532;2023-05-10T11:23:55;14.70;99.90
51557;DHT22;38766;53.194;5.532;2023-05-10T11:26:33;14.70;99.90
51557;DHT22;38766;53.194;5.532;2023-05-10T11:28:59;14.80;99.90
51557;DHT22;38766;53.194;5.532;2023-05-10T11:31:27;14.80;99.90
51557;DHT22;38766;53.194;5.532;2023-05-10T11:33:56;14.70;99.90
51557;DHT22;38766;53.194;5.532;2023-05-10T11:36:28;14.70;99.90
51557;DHT22;38766;53.194;5.532;2023-05-10T11:38:55;14.70;99.90
51557;DHT22;38766;53.194;5.532;2023-05-10T11:41:23;14.70;99.90
51557;DHT22;38766;53.194;5.532;2023-05-10T11:43:53;14.70;99.90
51557;DHT22;38766;53.194;5.532;2023-05-10T11:46:20;14.80;99.90
51557;DHT22;38766;53.194;5.532;2023-05-10T11:48:51;14.90;99.90
51557;DHT22;38766;53.194;5.532;2023-05-10T11:51:23;14.90;99.90
51557;DHT22;38766;53.194;5.532;2023-05-10T11:53:54;14.90;99.90
51557;DHT22;38766;53.194;5.532;2023-05-10T11:56:20;14.90;99.90
51557;DHT22;38766;53.194;5.532;2023-05-10T11:58:55;15.00;99.90
51557;DHT22;38766;53.194;5.532;2023-05-10T12:01:22;15.00;99.90
51557;DHT22;38766;53.194;5.532;2023-05-10T12:03:50;15.10;99.90
51557;DHT22;38766;53.194;5.532;2023-05-10T12:06:18;15.10;99.90
51557;DHT22;38766;53.194;5.532;2023-05-10T12:08:48;15.20;99.90
51557;DHT22;38766;53.194;5.532;2023-05-10T12:11:17;15.30;99.90
51557;DHT22;38766;53.194;5.532;2023-05-10T12:13:44;15.30;99.90
51557;DHT22;38766;53.194;5.532;2023-05-10T12:16:17;15.40;99.90
51557;DHT22;38766;53.194;5.532;2023-05-10T12:18:43;15.60;99.90
51557;DHT22;38766;53.194;5.532;2023-05-10T12:21:12;15.70;99.90
51557;DHT22;38766;53.194;5.532;2023-05-10T12:23:41;15.90;99.90
51557;DHT22;38766;53.194;5.532;2023-05-10T12:26:09;16.00;99.90
51557;DHT22;38766;53.194;5.532;2023-05-10T12:28:34;16.20;99.90
51557;DHT22;38766;53.194;5.532;2023-05-10T12:31:01;16.30;99.90
51557;DHT22;38766;53.194;5.532;2023-05-10T12:33:39;16.40;99.90
51557;DHT22;38766;53.194;5.532;2023-05-10T12:36:07;16.50;99.90
51557;DHT22;38766;53.194;5.532;2023-05-10T12:38:37;16.60;99.90
51557;DHT22;38766;53.194;5.532;2023-05-10T12:41:08;16.70;99.90
51557;DHT22;38766;53.194;5.532;2023-05-10T12:43:35;16.70;99.90
51557;DHT22;38766;53.194;5.532;2023-05-10T12:46:11;16.80;99.90
51557;DHT22;38766;53.194;5.532;2023-05-10T12:48:38;16.80;99.90
51557;DHT22;38766;53.194;5.532;2023-05-10T12:51:05;16.80;99.90
51557;DHT22;38766;53.194;5.532;2023-05-10T12:53:31;16.90;99.90
51557;DHT22;38766;53.194;5.532;2023-05-10T12:55:57;16.90;99.90
51557;DHT22;38766;53.194;5.532;2023-05-10T12:58:23;16.90;99.90
51557;DHT22;38766;53.194;5.532;2023-05-10T13:00:48;16.90;99.90
51557;DHT22;38766;53.194;5.532;2023-05-10T13:03:14;16.90;99.90
51557;DHT22;38766;53.194;5.532;2023-05-10T13:05:41;16.90;99.90
51557;DHT22;38766;53.194;5.532;2023-05-10T13:08:06;16.80;99.90
51557;DHT22;38766;53.194;5.532;2023-05-10T13:10:32;16.70;99.90
51557;DHT22;38766;53.194;5.532;2023-05-10T13:12:58;16.70;99.90
51557;DHT22;38766;53.194;5.532;2023-05-10T13:15:25;16.60;99.90
51557;DHT22;38766;53.194;5.532;2023-05-10T13:17:51;16.50;99.90
51557;DHT22;38766;53.194;5.532;2023-05-10T13:20:16;16.50;99.90
51557;DHT22;38766;53.194;5.532;2023-05-10T13:22:45;16.50;99.90
51557;DHT22;38766;53.194;5.532;2023-05-10T13:25:11;16.50;99.90
51557;DHT22;38766;53.194;5.532;2023-05-10T13:27:40;16.40;99.90
51557;DHT22;38766;53.194;5.532;2023-05-10T13:30:07;16.40;99.90
51557;DHT22;38766;53.194;5.532;2023-05-10T13:32:33;16.40;99.90
51557;DHT22;38766;53.194;5.532;2023-05-10T13:34:59;16.30;99.90
51557;DHT22;38766;53.194;5.532;2023-05-10T13:37:25;16.30;99.90
51557;DHT22;38766;53.194;5.532;2023-05-10T13:39:51;16.20;99.90
51557;DHT22;38766;53.194;5.532;2023-05-10T13:42:17;16.20;99.90
51557;DHT22;38766;53.194;5.532;2023-05-10T13:44:43;16.20;99.90
51557;DHT22;38766;53.194;5.532;2023-05-10T13:47:08;16.20;99.90
51557;DHT22;38766;53.194;5.532;2023-05-10T13:49:34;16.10;99.90
51557;DHT22;38766;53.194;5.532;2023-05-10T13:52:00;16.20;99.90
51557;DHT22;38766;53.194;5.532;2023-05-10T13:54:35;16.20;99.90
51557;DHT22;38766;53.194;5.532;2023-05-10T13:57:02;16.10;99.90
51557;DHT22;38766;53.194;5.532;2023-05-10T13:59:28;16.00;99.90
51557;DHT22;38766;53.194;5.532;2023-05-10T14:01:54;16.00;99.90
51557;DHT22;38766;53.194;5.532;2023-05-10T14:04:20;15.90;99.90
51557;DHT22;38766;53.194;5.532;2023-05-10T14:06:46;15.80;99.90
51557;DHT22;38766;53.194;5.532;2023-05-10T14:09:11;15.70;99.90
51557;DHT22;38766;53.194;5.532;2023-05-10T14:11:38;15.70;99.90
51557;DHT22;38766;53.194;5.532;2023-05-10T14:14:07;15.60;99.90
51557;DHT22;38766;53.194;5.532;2023-05-10T14:16:32;15.50;99.90
51557;DHT22;38766;53.194;5.532;2023-05-10T14:18:58;15.30;99.90
51557;DHT22;38766;53.194;5.532;2023-05-10T14:21:24;15.40;99.90
51557;DHT22;38766;53.194;5.532;2023-05-10T14:23:49;15.30;99.90
51557;DHT22;38766;53.194;5.532;2023-05-10T14:26:15;15.20;99.90
51557;DHT22;38766;53.194;5.532;2023-05-10T14:28:41;15.30;99.90
51557;DHT22;38766;53.194;5.532;2023-05-10T14:31:07;15.20;99.90
51557;DHT22;38766;53.194;5.532;2023-05-10T14:33:32;15.20;99.90
51557;DHT22;38766;53.194;5.532;2023-05-10T14:35:58;15.10;99.90
51557;DHT22;38766;53.194;5.532;2023-05-10T14:38:25;15.10;99.90
51557;DHT22;38766;53.194;5.532;2023-05-10T14:40:54;15.00;99.90
51557;DHT22;38766;53.194;5.532;2023-05-10T14:43:20;15.00;99.90
51557;DHT22;38766;53.194;5.532;2023-05-10T14:45:46;15.00;99.90
51557;DHT22;38766;53.194;5.532;2023-05-10T14:48:11;15.00;99.90
51557;DHT22;38766;53.194;5.532;2023-05-10T14:50:40;15.00;99.90
51557;DHT22;38766;53.194;5.532;2023-05-10T14:53:06;15.00;99.90
51557;DHT22;38766;53.194;5.532;2023-05-10T14:55:32;15.00;99.90
51557;DHT22;38766;53.194;5.532;2023-05-10T14:57:58;15.00;99.90
51557;DHT22;38766;53.194;5.532;2023-05-10T15:00:23;15.00;99.90
51557;DHT22;38766;53.194;5.532;2023-05-10T15:02:49;15.00;99.90
51557;DHT22;38766;53.194;5.532;2023-05-10T15:05:15;14.90;99.90
51557;DHT22;38766;53.194;5.532;2023-05-10T15:07:40;15.00;99.90
51557;DHT22;38766;53.194;5.532;2023-05-10T15:10:09;14.90;99.90
51557;DHT22;38766;53.194;5.532;2023-05-10T15:12:34;15.00;99.90
51557;DHT22;38766;53.194;5.532;2023-05-10T15:15:00;15.00;99.90
51557;DHT22;38766;53.194;5.532;2023-05-10T15:17:26;15.00;99.90
51557;DHT22;38766;53.194;5.532;2023-05-10T15:19:52;14.90;99.90
51557;DHT22;38766;53.194;5.532;2023-05-10T15:22:17;14.90;99.90
51557;DHT22;38766;53.194;5.532;2023-05-10T15:24:43;14.90;99.90
51557;DHT22;38766;53.194;5.532;2023-05-10T15:27:09;14.90;99.90
51557;DHT22;38766;53.194;5.532;2023-05-10T15:29:34;14.80;99.90
51557;DHT22;38766;53.194;5.532;2023-05-10T15:32:01;14.80;99.90
51557;DHT22;38766;53.194;5.532;2023-05-10T15:34:28;14.80;99.90
51557;DHT22;38766;53.194;5.532;2023-05-10T15:36:53;14.90;99.90
51557;DHT22;38766;53.194;5.532;2023-05-10T15:39:19;14.90;99.90
51557;DHT22;38766;53.194;5.532;2023-05-10T15:41:45;14.80;99.90
51557;DHT22;38766;53.194;5.532;2023-05-10T15:44:11;14.80;99.90
51557;DHT22;38766;53.194;5.532;2023-05-10T15:46:36;14.80;99.90
51557;DHT22;38766;53.194;5.532;2023-05-10T15:49:03;14.80;99.90
51557;DHT22;38766;53.194;5.532;2023-05-10T15:51:29;14.80;99.90
51557;DHT22;38766;53.194;5.532;2023-05-10T15:53:55;14.80;99.90